createdAt,value
2022-10-17T00:00:15.487Z,15.47
2022-10-17T00:02:20.188Z,15.46
2022-10-17T00:04:24.871Z,15.47
2022-10-17T00:06:29.501Z,15.45
2022-10-17T00:08:34.599Z,15.42
2022-10-17T00:10:39.602Z,15.39
2022-10-17T00:12:44.316Z,15.37
2022-10-17T00:14:52.307Z,15.36
2022-10-17T00:16:56.967Z,15.36
2022-10-17T00:19:01.971Z,15.38
2022-10-17T00:21:14.599Z,15.40
2022-10-17T00:23:19.294Z,15.42
2022-10-17T00:25:24.065Z,15.43
2022-10-17T00:27:29.348Z,15.43
2022-10-17T00:29:34.318Z,15.41
2022-10-17T00:31:39.040Z,15.36
2022-10-17T00:33:43.650Z,15.30
2022-10-17T00:35:48.369Z,15.30
2022-10-17T00:37:53.113Z,15.29
2022-10-17T00:39:57.835Z,15.28
2022-10-17T00:42:02.511Z,15.24
2022-10-17T00:44:23.087Z,15.17
2022-10-17T00:46:29.923Z,15.10
2022-10-17T00:48:34.670Z,15.06
2022-10-17T00:50:42.917Z,15.03
2022-10-17T00:52:48.926Z,15.03
2022-10-17T00:54:57.932Z,15.02
2022-10-17T00:57:02.817Z,15.03
2022-10-17T00:59:09.230Z,15.04
2022-10-17T01:01:18.756Z,15.05
2022-10-17T01:03:23.588Z,15.05
2022-10-17T01:05:29.086Z,15.07
2022-10-17T01:07:37.131Z,15.08
2022-10-17T01:09:44.437Z,15.05
2022-10-17T01:11:59.554Z,14.97
2022-10-17T01:14:17.208Z,14.92
2022-10-17T01:16:33.229Z,14.89
2022-10-17T01:18:51.628Z,14.89
2022-10-17T01:21:20.786Z,14.87
2022-10-17T01:24:01.929Z,14.82
2022-10-17T01:26:19.334Z,14.81
2022-10-17T01:28:46.725Z,14.79
2022-10-17T01:31:10.241Z,14.73
2022-10-17T01:33:23.284Z,14.70
2022-10-17T01:35:32.480Z,14.66
2022-10-17T01:37:45.857Z,14.63
2022-10-17T01:39:53.454Z,14.63
2022-10-17T01:42:10.415Z,14.62
2022-10-17T01:44:19.603Z,14.61
2022-10-17T01:46:28.606Z,14.58
2022-10-17T01:48:37.931Z,14.56
2022-10-17T01:50:48.814Z,14.51
2022-10-17T01:52:56.995Z,14.47
2022-10-17T01:55:07.596Z,14.45
2022-10-17T01:57:20.348Z,14.42
2022-10-17T01:59:29.269Z,14.40
2022-10-17T02:01:36.901Z,14.37
2022-10-17T02:03:45.030Z,14.33
2022-10-17T02:05:49.920Z,14.30
2022-10-17T02:07:54.673Z,14.28
2022-10-17T02:09:59.689Z,14.25
2022-10-17T02:12:37.866Z,14.27
2022-10-17T02:14:57.004Z,14.28
2022-10-17T02:17:08.536Z,14.27
2022-10-17T02:19:46.392Z,14.28
2022-10-17T02:22:01.432Z,14.28
2022-10-17T02:24:15.160Z,14.27
2022-10-17T02:26:25.982Z,14.25
2022-10-17T02:28:38.373Z,14.24
2022-10-17T02:30:47.190Z,14.22
2022-10-17T02:32:59.073Z,14.19
2022-10-17T02:35:07.511Z,14.16
2022-10-17T02:37:15.728Z,14.16
2022-10-17T02:39:22.243Z,14.17
2022-10-17T02:43:39.286Z,14.18
2022-10-17T02:45:44.140Z,14.13
2022-10-17T02:47:56.026Z,14.09
2022-10-17T02:50:00.766Z,14.07
2022-10-17T02:52:10.693Z,14.05
2022-10-17T02:54:20.841Z,14.05
2022-10-17T02:56:28.269Z,14.07
2022-10-17T02:58:36.389Z,14.08
2022-10-17T03:00:42.655Z,14.10
2022-10-17T03:02:49.226Z,14.09
2022-10-17T03:04:53.936Z,14.08
2022-10-17T03:06:58.649Z,14.03
2022-10-17T03:09:03.375Z,13.99
2022-10-17T03:11:08.340Z,13.95
2022-10-17T03:13:13.047Z,13.92
2022-10-17T03:15:18.088Z,13.90
2022-10-17T03:17:22.820Z,13.89
2022-10-17T03:19:27.564Z,13.89
2022-10-17T03:21:32.649Z,13.90
2022-10-17T03:23:37.350Z,13.90
2022-10-17T03:25:42.435Z,13.89
2022-10-17T03:27:47.171Z,13.89
2022-10-17T03:29:51.847Z,13.87
2022-10-17T03:31:56.583Z,13.84
2022-10-17T03:34:01.645Z,13.81
2022-10-17T03:36:11.026Z,13.81
2022-10-17T03:38:15.906Z,13.79
2022-10-17T03:40:22.708Z,13.77
2022-10-17T03:42:27.460Z,13.75
2022-10-17T03:44:32.110Z,13.71
2022-10-17T03:46:37.020Z,13.64
2022-10-17T03:48:42.072Z,13.58
2022-10-17T03:50:46.767Z,13.52
2022-10-17T03:52:51.669Z,13.48
2022-10-17T03:54:56.752Z,13.47
2022-10-17T03:57:01.386Z,13.46
2022-10-17T03:59:06.232Z,13.47
2022-10-17T04:01:15.469Z,13.47
2022-10-17T04:03:20.158Z,13.48
2022-10-17T04:05:25.170Z,13.50
2022-10-17T04:07:30.946Z,13.54
2022-10-17T04:09:35.861Z,13.56
2022-10-17T04:11:46.037Z,13.56
2022-10-17T04:13:54.901Z,13.54
2022-10-17T04:16:01.362Z,13.52
2022-10-17T04:18:06.859Z,13.47
2022-10-17T04:20:12.717Z,13.46
2022-10-17T04:22:17.548Z,13.46
2022-10-17T04:24:22.261Z,13.45
2022-10-17T04:26:39.741Z,13.48
2022-10-17T04:28:44.481Z,13.49
2022-10-17T04:30:55.411Z,13.49
2022-10-17T04:33:00.449Z,13.50
2022-10-17T04:35:07.753Z,13.52
2022-10-17T04:37:12.418Z,13.52
2022-10-17T04:39:17.499Z,13.56
2022-10-17T04:41:22.818Z,13.58
2022-10-17T04:43:27.527Z,13.59
2022-10-17T04:45:32.305Z,13.54
2022-10-17T04:47:39.344Z,13.50
2022-10-17T04:49:44.502Z,13.46
2022-10-17T04:51:49.381Z,13.42
2022-10-17T04:54:00.723Z,13.37
2022-10-17T04:56:10.112Z,13.34
2022-10-17T04:58:14.955Z,13.32
2022-10-17T05:00:20.260Z,13.32
2022-10-17T05:02:36.825Z,13.29
2022-10-17T05:04:41.644Z,13.25
2022-10-17T05:06:46.671Z,13.23
2022-10-17T05:09:11.621Z,13.19
2022-10-17T05:11:20.135Z,13.15
2022-10-17T05:13:24.984Z,13.13
2022-10-17T05:15:29.718Z,13.12
2022-10-17T05:17:37.332Z,13.12
2022-10-17T05:19:43.334Z,13.09
2022-10-17T05:21:48.092Z,13.10
2022-10-17T05:23:53.232Z,13.12
2022-10-17T05:25:58.300Z,13.11
2022-10-17T05:28:04.924Z,13.11
2022-10-17T05:30:11.461Z,13.11
2022-10-17T05:32:16.712Z,13.13
2022-10-17T05:34:21.632Z,13.17
2022-10-17T05:36:26.516Z,13.19
2022-10-17T05:38:31.682Z,13.23
2022-10-17T05:40:36.480Z,13.25
2022-10-17T05:42:45.476Z,13.26
2022-10-17T05:44:50.592Z,13.24
2022-10-17T05:46:56.465Z,13.24
2022-10-17T05:49:01.175Z,13.26
2022-10-17T05:51:08.008Z,13.30
2022-10-17T05:53:13.188Z,13.32
2022-10-17T05:55:22.611Z,13.37
2022-10-17T05:57:27.862Z,13.40
2022-10-17T05:59:32.716Z,13.41
2022-10-17T06:01:50.737Z,13.39
2022-10-17T06:03:55.600Z,13.40
2022-10-17T06:06:05.353Z,13.42
2022-10-17T06:08:13.193Z,13.45
2022-10-17T06:10:18.518Z,13.47
2022-10-17T06:12:23.431Z,13.46
2022-10-17T06:14:28.153Z,13.48
2022-10-17T06:16:37.504Z,13.48
2022-10-17T06:18:42.308Z,13.50
2022-10-17T06:20:47.206Z,13.52
2022-10-17T06:22:53.949Z,13.53
2022-10-17T06:25:12.012Z,13.58
2022-10-17T06:27:16.649Z,13.60
2022-10-17T06:29:21.398Z,13.62
2022-10-17T06:31:28.821Z,13.64
2022-10-17T06:33:34.524Z,13.66
2022-10-17T06:35:41.542Z,13.69
2022-10-17T06:37:46.799Z,13.71
2022-10-17T06:39:51.520Z,13.72
2022-10-17T06:41:59.389Z,13.75
2022-10-17T06:44:20.282Z,13.76
2022-10-17T06:46:35.869Z,13.79
2022-10-17T06:48:43.190Z,13.82
2022-10-17T06:51:09.086Z,13.84
2022-10-17T06:53:22.902Z,13.87
2022-10-17T06:56:06.122Z,13.91
2022-10-17T06:58:26.491Z,13.97
2022-10-17T07:00:43.182Z,14.03
2022-10-17T07:02:49.789Z,14.09
2022-10-17T07:04:54.830Z,14.13
2022-10-17T07:07:02.035Z,14.17
2022-10-17T07:09:07.088Z,14.23
2022-10-17T07:11:16.024Z,14.23
2022-10-17T07:13:21.221Z,14.24
2022-10-17T07:15:25.966Z,14.27
2022-10-17T07:17:30.861Z,14.31
2022-10-17T07:19:35.899Z,14.37
2022-10-17T07:21:40.981Z,14.44
2022-10-17T07:23:48.072Z,14.49
2022-10-17T07:25:53.492Z,14.52
2022-10-17T07:27:58.441Z,14.57
2022-10-17T07:30:03.838Z,14.62
2022-10-17T07:32:28.792Z,14.68
2022-10-17T07:34:35.059Z,14.75
2022-10-17T07:36:39.848Z,14.81
2022-10-17T07:38:45.209Z,14.85
2022-10-17T07:40:56.298Z,14.93
2022-10-17T07:43:01.922Z,14.99
2022-10-17T07:45:09.604Z,15.06
2022-10-17T07:47:14.887Z,15.12
2022-10-17T07:49:19.689Z,15.16
2022-10-17T07:51:24.396Z,15.19
2022-10-17T07:53:29.028Z,15.20
2022-10-17T07:55:33.646Z,15.24
2022-10-17T07:57:38.357Z,15.30
2022-10-17T07:59:43.019Z,15.37
2022-10-17T08:01:48.129Z,15.45
2022-10-17T08:03:53.211Z,15.53
2022-10-17T08:06:01.257Z,15.60
2022-10-17T08:08:06.314Z,15.64
2022-10-17T08:10:13.840Z,15.66
2022-10-17T08:12:18.978Z,15.71
2022-10-17T08:14:23.666Z,15.76
2022-10-17T08:16:31.340Z,15.78
2022-10-17T08:18:36.360Z,15.87
2022-10-17T08:20:41.059Z,15.94
2022-10-17T08:22:53.091Z,15.99
2022-10-17T08:24:57.776Z,16.05
2022-10-17T08:27:02.634Z,16.14
2022-10-17T08:29:12.305Z,16.20
2022-10-17T08:31:18.797Z,16.27
2022-10-17T08:33:23.500Z,16.33
2022-10-17T08:35:28.328Z,16.38
2022-10-17T08:37:35.969Z,16.41
2022-10-17T08:39:40.861Z,16.44
2022-10-17T08:41:57.149Z,16.50
2022-10-17T08:44:12.997Z,16.59
2022-10-17T08:46:19.684Z,16.67
2022-10-17T08:48:27.197Z,16.76
2022-10-17T08:50:37.620Z,16.82
2022-10-17T08:52:45.085Z,16.87
2022-10-17T08:54:50.953Z,16.95
2022-10-17T08:56:58.565Z,17.04
2022-10-17T08:59:04.753Z,17.13
2022-10-17T09:01:22.563Z,17.22
2022-10-17T09:03:48.254Z,17.34
2022-10-17T09:05:58.019Z,17.43
2022-10-17T09:08:12.254Z,17.52
2022-10-17T09:10:25.820Z,17.58
2022-10-17T09:12:40.593Z,17.65
2022-10-17T09:15:11.546Z,17.73
2022-10-17T09:17:29.601Z,17.84
2022-10-17T09:19:37.752Z,17.94
2022-10-17T09:21:46.646Z,18.04
2022-10-17T09:24:03.781Z,18.12
2022-10-17T09:26:17.272Z,18.22
2022-10-17T09:28:26.224Z,18.31
2022-10-17T09:30:46.397Z,18.39
2022-10-17T09:32:52.399Z,18.48
2022-10-17T09:34:57.382Z,18.55
2022-10-17T09:37:09.586Z,18.62
2022-10-17T09:39:17.613Z,18.70
2022-10-17T09:41:44.206Z,18.76
2022-10-17T09:43:52.157Z,18.86
2022-10-17T09:46:08.515Z,18.93
2022-10-17T09:48:23.600Z,19.03
2022-10-17T09:50:31.171Z,19.14
2022-10-17T09:52:43.419Z,19.22
2022-10-17T09:54:49.955Z,19.32
2022-10-17T09:57:03.758Z,19.42
2022-10-17T09:59:13.804Z,19.51
2022-10-17T10:01:24.004Z,19.59
2022-10-17T10:03:29.327Z,19.66
2022-10-17T10:05:34.145Z,19.74
2022-10-17T10:07:39.696Z,19.81
2022-10-17T10:09:49.035Z,19.89
2022-10-17T10:11:56.777Z,19.98
2022-10-17T10:14:19.586Z,20.06
2022-10-17T10:16:30.896Z,20.15
2022-10-17T10:18:36.468Z,20.22
2022-10-17T10:20:41.411Z,20.29
2022-10-17T10:23:05.478Z,20.37
2022-10-17T10:25:16.158Z,20.48
2022-10-17T10:27:29.266Z,20.56
2022-10-17T10:29:36.632Z,20.64
2022-10-17T10:31:41.634Z,20.73
2022-10-17T10:33:49.540Z,20.81
2022-10-17T10:35:59.268Z,20.90
2022-10-17T10:38:09.510Z,21.01
2022-10-17T10:40:22.641Z,21.10
2022-10-17T10:42:30.983Z,21.19
2022-10-17T10:44:38.167Z,21.27
2022-10-17T10:46:43.059Z,21.35
2022-10-17T10:48:55.314Z,21.43
2022-10-17T10:51:02.940Z,21.51
2022-10-17T10:53:20.414Z,21.57
2022-10-17T10:55:29.780Z,21.62
2022-10-17T10:57:38.007Z,21.68
2022-10-17T10:59:49.476Z,21.75
2022-10-17T11:02:00.245Z,21.81
2022-10-17T11:04:17.926Z,21.86
2022-10-17T11:06:27.398Z,21.97
2022-10-17T11:08:40.477Z,22.05
2022-10-17T11:10:57.272Z,22.13
2022-10-17T11:13:11.021Z,22.20
2022-10-17T11:15:23.844Z,22.27
2022-10-17T11:17:34.624Z,22.34
2022-10-17T11:19:45.129Z,22.41
2022-10-17T11:21:56.322Z,22.49
2022-10-17T11:24:09.090Z,22.56
2022-10-17T11:26:18.581Z,22.64
2022-10-17T11:28:24.918Z,22.70
2022-10-17T11:30:41.550Z,22.73
2022-10-17T11:32:50.730Z,22.79
2022-10-17T11:35:00.334Z,22.82
2022-10-17T11:37:12.601Z,22.85
2022-10-17T11:39:20.497Z,22.88
2022-10-17T11:41:34.658Z,22.93
2022-10-17T11:43:45.531Z,22.98
2022-10-17T11:45:55.783Z,23.02
2022-10-17T11:48:06.594Z,23.08
2022-10-17T11:52:56.297Z,23.19
2022-10-17T11:55:11.603Z,23.24
2022-10-17T11:57:39.522Z,23.29
2022-10-17T11:59:58.661Z,23.35
2022-10-17T12:02:09.820Z,23.41
2022-10-17T12:04:35.372Z,23.43
2022-10-17T12:06:57.235Z,23.47
2022-10-17T12:09:11.990Z,23.53
2022-10-17T12:11:42.091Z,23.53
2022-10-17T12:13:52.992Z,23.58
2022-10-17T12:15:59.006Z,23.61
2022-10-17T12:18:16.443Z,23.64
2022-10-17T12:20:37.729Z,23.68
2022-10-17T12:22:48.650Z,23.74
2022-10-17T12:25:01.913Z,23.79
2022-10-17T12:27:37.020Z,23.84
2022-10-17T12:29:41.839Z,23.90
2022-10-17T12:31:46.614Z,23.89
2022-10-17T12:33:53.997Z,23.88
2022-10-17T12:36:29.056Z,23.90
2022-10-17T12:38:33.736Z,23.94
2022-10-17T12:41:01.429Z,23.97
2022-10-17T12:43:46.796Z,24.02
2022-10-17T12:45:52.937Z,24.05
2022-10-17T12:47:57.674Z,24.05
2022-10-17T12:50:02.658Z,24.05
2022-10-17T12:52:24.975Z,24.07
2022-10-17T12:54:37.828Z,24.09
2022-10-17T12:56:52.209Z,24.09
2022-10-17T12:58:58.369Z,24.10
2022-10-17T13:01:23.295Z,24.14
2022-10-17T13:03:32.002Z,24.23
2022-10-17T13:05:40.199Z,24.27
2022-10-17T13:07:48.492Z,24.29
2022-10-17T13:09:53.293Z,24.28
2022-10-17T13:12:00.990Z,24.28
2022-10-17T13:14:13.258Z,24.26
2022-10-17T13:16:31.562Z,24.30
2022-10-17T13:18:36.226Z,24.33
2022-10-17T13:20:40.976Z,24.38
2022-10-17T13:22:47.363Z,24.44
2022-10-17T13:24:53.603Z,24.52
2022-10-17T13:26:58.773Z,24.55
2022-10-17T13:29:06.968Z,24.56
2022-10-17T13:31:29.639Z,24.57
2022-10-17T13:33:37.572Z,24.55
2022-10-17T13:35:59.538Z,24.54
2022-10-17T13:38:07.017Z,24.51
2022-10-17T13:40:49.165Z,24.50
2022-10-17T13:42:44.311Z,24.49
2022-10-17T13:44:49.252Z,24.47
2022-10-17T13:46:54.376Z,24.47
2022-10-17T13:49:08.501Z,24.45
2022-10-17T13:51:14.483Z,24.44
2022-10-17T13:53:30.458Z,24.41
2022-10-17T13:55:35.091Z,24.39
2022-10-17T13:57:39.866Z,24.35
2022-10-17T13:59:46.544Z,24.30
2022-10-17T14:01:51.798Z,24.28
2022-10-17T14:04:08.348Z,24.23
2022-10-17T14:06:17.887Z,24.13
2022-10-17T14:08:23.818Z,24.10
2022-10-17T14:10:33.053Z,24.07
2022-10-17T14:12:42.639Z,24.06
2022-10-17T14:15:09.733Z,24.01
2022-10-17T14:17:25.122Z,23.98
2022-10-17T14:19:32.755Z,23.96
2022-10-17T14:21:44.224Z,23.91
2022-10-17T14:23:50.189Z,23.88
2022-10-17T14:26:06.896Z,23.84
2022-10-17T14:28:16.038Z,23.82
2022-10-17T14:30:55.698Z,23.80
2022-10-17T14:33:04.016Z,23.77
2022-10-17T14:35:37.367Z,23.72
2022-10-17T14:37:45.375Z,23.65
2022-10-17T14:39:52.086Z,23.62
2022-10-17T14:41:59.690Z,23.58
2022-10-17T14:44:16.827Z,23.53
2022-10-17T14:46:21.772Z,23.47
2022-10-17T14:48:28.127Z,23.42
2022-10-17T14:50:34.044Z,23.37
2022-10-17T14:52:39.100Z,23.33
2022-10-17T14:54:46.097Z,23.29
2022-10-17T14:56:53.590Z,23.22
2022-10-17T14:58:58.181Z,23.16
2022-10-17T15:01:03.454Z,23.14
2022-10-17T15:03:08.202Z,23.11
2022-10-17T15:05:13.725Z,23.06
2022-10-17T15:07:19.481Z,23.02
2022-10-17T15:09:24.402Z,22.97
2022-10-17T15:11:29.781Z,22.88
2022-10-17T15:13:40.073Z,22.82
2022-10-17T15:15:47.846Z,22.75
2022-10-17T15:17:52.471Z,22.70
2022-10-17T15:19:57.788Z,22.65
2022-10-17T15:22:02.700Z,22.59
2022-10-17T15:24:07.737Z,22.53
2022-10-17T15:26:19.002Z,22.45
2022-10-17T15:28:23.650Z,22.39
2022-10-17T15:30:32.242Z,22.32
2022-10-17T15:32:36.950Z,22.24
2022-10-17T15:34:42.220Z,22.17
2022-10-17T15:36:51.350Z,22.09
2022-10-17T15:38:58.471Z,22.02
2022-10-17T15:41:03.173Z,21.97
2022-10-17T15:43:09.199Z,21.92
2022-10-17T15:45:15.489Z,21.84
2022-10-17T15:47:27.330Z,21.77
2022-10-17T15:49:32.207Z,21.67
2022-10-17T15:51:36.997Z,21.59
2022-10-17T15:53:41.948Z,21.52
2022-10-17T15:55:47.177Z,21.44
2022-10-17T15:57:51.879Z,21.36
2022-10-17T15:59:57.823Z,21.26
2022-10-17T16:02:02.927Z,21.19
2022-10-17T16:04:09.232Z,21.11
2022-10-17T16:06:14.306Z,21.04
2022-10-17T16:08:19.183Z,20.98
2022-10-17T16:10:24.910Z,20.92
2022-10-17T16:12:30.378Z,20.86
2022-10-17T16:14:35.096Z,20.79
2022-10-17T16:16:41.087Z,20.74
2022-10-17T16:18:45.793Z,20.68
2022-10-17T16:20:50.524Z,20.62
2022-10-17T16:22:55.715Z,20.57
2022-10-17T16:25:00.425Z,20.51
2022-10-17T16:27:05.148Z,20.46
2022-10-17T16:29:10.382Z,20.40
2022-10-17T16:31:22.346Z,20.35
2022-10-17T16:33:27.383Z,20.29
2022-10-17T16:35:36.544Z,20.25
2022-10-17T16:37:45.007Z,20.21
2022-10-17T16:39:49.776Z,20.16
2022-10-17T16:41:57.717Z,20.13
2022-10-17T16:44:05.498Z,20.09
2022-10-17T16:46:10.197Z,20.04
2022-10-17T16:48:15.983Z,20.00
2022-10-17T16:50:20.763Z,19.96
2022-10-17T16:52:25.795Z,19.92
2022-10-17T16:54:30.523Z,19.88
2022-10-17T16:56:35.410Z,19.84
2022-10-17T16:58:41.275Z,19.81
2022-10-17T17:00:48.487Z,19.77
2022-10-17T17:02:53.679Z,19.74
2022-10-17T17:04:58.532Z,19.69
2022-10-17T17:07:04.349Z,19.66
2022-10-17T17:09:09.799Z,19.63
2022-10-17T17:11:18.439Z,19.60
2022-10-17T17:13:24.909Z,19.55
2022-10-17T17:15:31.074Z,19.50
2022-10-17T17:17:54.712Z,19.48
2022-10-17T17:20:02.326Z,19.44
2022-10-17T17:22:11.306Z,19.41
2022-10-17T17:24:17.464Z,19.37
2022-10-17T17:26:25.345Z,19.32
2022-10-17T17:28:32.564Z,19.28
2022-10-17T17:30:39.419Z,19.24
2022-10-17T17:32:44.618Z,19.21
2022-10-17T17:34:49.426Z,19.18
2022-10-17T17:36:55.057Z,19.16
2022-10-17T17:39:01.943Z,19.12
2022-10-17T17:41:11.240Z,19.10
2022-10-17T17:43:16.509Z,19.08
2022-10-17T17:45:23.260Z,19.06
2022-10-17T17:47:30.386Z,19.04
2022-10-17T17:49:36.293Z,19.01
2022-10-17T17:51:43.549Z,18.99
2022-10-17T17:53:50.085Z,18.96
2022-10-17T17:56:05.922Z,18.94
2022-10-17T17:58:11.683Z,18.92
2022-10-17T18:00:17.463Z,18.90
2022-10-17T18:02:23.564Z,18.88
2022-10-17T18:04:29.461Z,18.86
2022-10-17T18:06:35.058Z,18.85
2022-10-17T18:08:40.633Z,18.82
2022-10-17T18:10:50.696Z,18.80
2022-10-17T18:12:56.248Z,18.77
2022-10-17T18:15:03.599Z,18.75
2022-10-17T18:17:12.512Z,18.72
2022-10-17T18:19:19.831Z,18.70
2022-10-17T18:21:25.728Z,18.68
2022-10-17T18:23:32.724Z,18.65
2022-10-17T18:25:39.340Z,18.63
2022-10-17T18:27:45.145Z,18.61
2022-10-17T18:29:51.956Z,18.58
2022-10-17T18:32:01.756Z,18.57
2022-10-17T18:34:08.718Z,18.54
2022-10-17T18:36:16.268Z,18.51
2022-10-17T18:38:23.279Z,18.49
2022-10-17T18:40:36.283Z,18.47
2022-10-17T18:42:44.214Z,18.44
2022-10-17T18:44:52.746Z,18.42
2022-10-17T18:47:02.897Z,18.40
2022-10-17T18:49:10.875Z,18.37
2022-10-17T18:51:26.361Z,18.36
2022-10-17T18:53:32.988Z,18.33
2022-10-17T18:55:40.712Z,18.31
2022-10-17T18:57:48.064Z,18.31
2022-10-17T18:59:57.770Z,18.29
2022-10-17T19:02:04.043Z,18.28
2022-10-17T19:04:10.123Z,18.28
2022-10-17T19:06:17.820Z,18.25
2022-10-17T19:08:23.011Z,18.23
2022-10-17T19:10:27.665Z,18.22
2022-10-17T19:12:34.430Z,18.21
2022-10-17T19:14:40.585Z,18.20
2022-10-17T19:16:47.411Z,18.19
2022-10-17T19:18:53.826Z,18.18
2022-10-17T19:21:03.469Z,18.17
2022-10-17T19:23:08.174Z,18.15
2022-10-17T19:25:12.986Z,18.13
2022-10-17T19:27:18.369Z,18.12
2022-10-17T19:29:27.929Z,18.10
2022-10-17T19:31:35.313Z,18.09
2022-10-17T19:33:40.169Z,18.08
2022-10-17T19:35:44.976Z,18.08
2022-10-17T19:37:51.041Z,18.09
2022-10-17T19:39:56.107Z,18.09
2022-10-17T19:42:06.737Z,18.09
2022-10-17T19:44:13.567Z,18.09
2022-10-17T19:46:20.363Z,18.09
2022-10-17T19:48:25.726Z,18.10
2022-10-17T19:50:31.987Z,18.09
2022-10-17T19:52:36.996Z,18.09
2022-10-17T19:54:46.247Z,18.09
2022-10-17T19:56:51.908Z,18.08
2022-10-17T19:58:57.070Z,18.06
2022-10-17T20:01:05.752Z,18.05
2022-10-17T20:03:10.585Z,18.04
2022-10-17T20:05:18.886Z,18.03
2022-10-17T20:07:24.029Z,18.01
2022-10-17T20:09:28.830Z,17.99
2022-10-17T20:11:34.639Z,17.97
2022-10-17T20:13:40.867Z,17.96
2022-10-17T20:15:55.438Z,17.95
2022-10-17T20:18:01.179Z,17.94
2022-10-17T20:20:08.828Z,17.94
2022-10-17T20:22:14.154Z,17.93
2022-10-17T20:24:18.956Z,17.92
2022-10-17T20:26:36.566Z,17.92
2022-10-17T20:28:43.110Z,17.90
2022-10-17T20:30:47.974Z,17.90
2022-10-17T20:32:55.103Z,17.89
2022-10-17T20:35:00.416Z,17.89
2022-10-17T20:37:05.392Z,17.87
2022-10-17T20:39:12.432Z,17.87
2022-10-17T20:41:17.105Z,17.87
2022-10-17T20:43:21.790Z,17.87
2022-10-17T20:45:37.639Z,17.87
2022-10-17T20:47:52.846Z,17.86
2022-10-17T20:49:57.739Z,17.85
2022-10-17T20:52:02.849Z,17.84
2022-10-17T20:54:07.490Z,17.85
2022-10-17T20:56:19.809Z,17.84
2022-10-17T20:58:24.462Z,17.83
2022-10-17T21:00:29.197Z,17.83
2022-10-17T21:02:33.926Z,17.83
2022-10-17T21:04:46.350Z,17.82
2022-10-17T21:06:51.707Z,17.81
2022-10-17T21:08:59.208Z,17.81
2022-10-17T21:11:12.450Z,17.80
2022-10-17T21:13:17.170Z,17.81
2022-10-17T21:15:21.807Z,17.79
2022-10-17T21:17:26.605Z,17.79
2022-10-17T21:19:31.256Z,17.76
2022-10-17T21:21:37.851Z,17.74
2022-10-17T21:23:43.550Z,17.73
2022-10-17T21:25:48.221Z,17.70
2022-10-17T21:27:54.639Z,17.66
2022-10-17T21:29:59.327Z,17.63
2022-10-17T21:32:11.371Z,17.60
2022-10-17T21:34:28.816Z,17.56
2022-10-17T21:36:33.616Z,17.52
2022-10-17T21:38:39.530Z,17.49
2022-10-17T21:40:48.774Z,17.44
2022-10-17T21:42:54.156Z,17.41
2022-10-17T21:44:58.748Z,17.38
2022-10-17T21:47:03.430Z,17.36
2022-10-17T21:49:09.606Z,17.34
2022-10-17T21:51:23.209Z,17.30
2022-10-17T21:53:28.058Z,17.26
2022-10-17T21:55:35.534Z,17.23
2022-10-17T21:57:40.169Z,17.20
2022-10-17T21:59:44.761Z,17.18
2022-10-17T22:01:49.517Z,17.14
2022-10-17T22:03:55.699Z,17.10
2022-10-17T22:06:12.971Z,17.07
2022-10-17T22:08:25.064Z,17.02
2022-10-17T22:10:29.748Z,16.97
2022-10-17T22:12:34.439Z,16.95
2022-10-17T22:14:39.114Z,16.92
2022-10-17T22:16:44.521Z,16.88
2022-10-17T22:18:49.483Z,16.86
2022-10-17T22:20:54.103Z,16.85
2022-10-17T22:22:58.775Z,16.84
2022-10-17T22:25:03.585Z,16.83
2022-10-17T22:27:08.242Z,16.81
2022-10-17T22:29:13.649Z,16.78
2022-10-17T22:31:18.460Z,16.77
2022-10-17T22:33:23.206Z,16.75
2022-10-17T22:35:27.908Z,16.74
2022-10-17T22:37:32.810Z,16.73
2022-10-17T22:39:37.818Z,16.73
2022-10-17T22:41:42.549Z,16.70
2022-10-17T22:43:47.340Z,16.67
2022-10-17T22:45:56.576Z,16.65
2022-10-17T22:48:01.208Z,16.63
2022-10-17T22:50:06.613Z,16.62
2022-10-17T22:52:11.251Z,16.63
2022-10-17T22:54:16.199Z,16.62
2022-10-17T22:56:22.112Z,16.62
2022-10-17T22:58:28.612Z,16.62
2022-10-17T23:00:33.228Z,16.63
2022-10-17T23:02:38.361Z,16.62
2022-10-17T23:04:43.015Z,16.60
2022-10-17T23:06:47.654Z,16.60
2022-10-17T23:08:52.306Z,16.59
2022-10-17T23:10:57.301Z,16.60
2022-10-17T23:13:02.309Z,16.62
2022-10-17T23:15:08.683Z,16.65
2022-10-17T23:17:13.893Z,16.66
2022-10-17T23:19:18.810Z,16.67
2022-10-17T23:21:23.514Z,16.65
2022-10-17T23:23:28.189Z,16.64
2022-10-17T23:25:34.430Z,16.61
2022-10-17T23:27:39.004Z,16.60
2022-10-17T23:29:44.810Z,16.58
2022-10-17T23:31:49.501Z,16.57
2022-10-17T23:33:54.113Z,16.56
2022-10-17T23:35:58.826Z,16.57
2022-10-17T23:38:03.485Z,16.56
2022-10-17T23:40:09.949Z,16.53
2022-10-17T23:42:14.555Z,16.49
2022-10-17T23:44:20.693Z,16.46
2022-10-17T23:46:25.483Z,16.42
2022-10-17T23:48:30.486Z,16.43
2022-10-17T23:50:35.375Z,16.44
2022-10-17T23:52:40.047Z,16.44
2022-10-17T23:54:44.739Z,16.42
2022-10-17T23:56:49.367Z,16.42
2022-10-17T23:58:54.093Z,16.40
